.
WxDataArchive / Data Records for 2014-10-22
2014-10-21 October 2014 2014-10-23

Data Records for Wednesday, 22 October 2014

Time	Temp	Chill	HIndex	Humid	Dewpt	 Wind 	HiWind	WindDir	Rain 	Barom
-----	----	-----	------	-----	-----	------	------	-------	-----	-----
00:00	44.2	44.2	44.2	71	35.4	0	2	68	0.00	30.216 
00:05	44.1	44.1	44.1	72	35.7	0	1	68	0.00	30.216 
00:10	43.9	43.9	43.9	73	35.8	0	1	68	0.00	30.216 
00:15	43.8	43.8	43.8	73	35.7	0	1	68	0.00	30.215 
00:20	43.6	43.6	43.6	73	35.5	0	0	---	0.00	30.215 
00:25	43.6	43.6	43.6	73	35.5	0	1	68	0.00	30.215 
00:30	43.6	43.6	43.6	74	35.9	0	0	---	0.00	30.213 
00:35	43.5	43.5	43.5	74	35.8	0	1	68	0.00	30.213 
00:40	43.5	43.5	43.5	74	35.8	0	0	---	0.00	30.213 
00:45	43.3	43.3	43.3	75	35.9	0	0	---	0.00	30.211 
00:50	43.1	43.1	43.1	75	35.7	0	1	68	0.00	30.211 
00:55	42.9	42.9	42.9	75	35.5	0	1	68	0.00	30.211 
01:00	42.6	42.6	42.6	76	35.6	0	0	---	0.00	30.209 
01:05	42.5	42.5	42.5	76	35.5	0	0	---	0.00	30.209 
01:10	42.2	42.2	42.2	77	35.5	0	0	---	0.00	30.209 
01:15	42.1	42.1	42.1	77	35.4	0	0	---	0.00	30.213 
01:20	41.8	41.8	41.8	78	35.5	0	0	---	0.00	30.213 
01:25	41.6	41.6	41.6	78	35.3	0	0	---	0.00	30.213 
01:30	41.6	41.6	41.6	79	35.6	0	1	68	0.00	30.215 
01:35	41.8	41.8	41.8	79	35.8	0	0	---	0.00	30.215 
01:40	41.8	41.8	41.8	79	35.8	0	0	---	0.00	30.215 
01:45	41.8	41.8	41.8	79	35.8	0	1	68	0.00	30.217 
01:50	41.9	41.9	41.9	79	35.9	0	1	68	0.00	30.217 
01:55	42.1	42.1	42.1	79	36.1	0	0	---	0.00	30.217 
02:00	42.1	42.1	42.1	79	36.1	0	1	68	0.00	30.218 
02:05	42.1	42.1	42.1	79	36.1	0	1	68	0.00	30.218 
02:10	42.1	42.1	42.1	79	36.1	0	1	68	0.00	30.218 
02:15	42.1	42.1	42.1	79	36.1	0	1	68	0.00	30.218 
02:20	42.1	42.1	42.1	79	36.1	0	1	68	0.00	30.218 
02:25	41.9	41.9	41.9	79	35.9	0	2	68	0.00	30.218 
02:30	41.8	41.8	41.8	79	35.8	0	2	68	0.00	30.218 
02:35	41.6	41.6	41.6	80	35.9	0	1	68	0.00	30.218 
02:40	41.3	41.3	41.3	80	35.6	0	2	68	0.00	30.218 
02:45	41.2	41.2	41.2	80	35.5	0	3	68	0.00	30.217 
02:50	41.1	41.1	41.1	81	35.7	0	1	68	0.00	30.217 
02:55	40.8	40.8	40.8	81	35.4	0	1	68	0.00	30.217 
03:00	40.6	40.6	40.6	81	35.2	0	0	---	0.00	30.218 
03:05	40.5	40.5	40.5	81	35.1	0	0	---	0.00	30.218 
03:10	40.2	40.2	40.2	82	35.2	0	0	---	0.00	30.218 
03:15	40.1	40.1	40.1	82	35.1	0	1	68	0.00	30.221 
03:20	39.8	39.8	39.8	82	34.8	0	0	---	0.00	30.221 
03:25	39.6	39.6	39.6	83	34.9	0	0	---	0.00	30.221 
03:30	39.5	39.5	39.5	83	34.8	0	0	---	0.00	30.222 
03:35	39.2	39.2	39.2	84	34.8	0	0	---	0.00	30.222 
03:40	39.1	39.1	39.1	84	34.7	0	1	68	0.00	30.222 
03:45	39.1	39.1	39.1	84	34.7	0	1	68	0.00	30.227 
03:50	39.1	39.1	39.1	84	34.7	0	2	68	0.00	30.227 
03:55	39.1	39.1	39.1	85	35.0	0	1	68	0.00	30.227 
04:00	39.2	39.2	39.2	85	35.1	0	1	68	0.00	30.230 
04:05	39.3	39.3	39.3	85	35.2	0	2	68	0.00	30.230 
04:10	39.5	39.5	39.5	85	35.4	0	2	68	0.00	30.230 
04:15	39.6	39.6	39.6	85	35.5	0	1	68	0.00	30.235 
04:20	39.6	39.6	39.6	85	35.5	0	1	68	0.00	30.235 
04:25	39.8	39.8	39.8	85	35.7	0	1	68	0.00	30.235 
04:30	39.8	39.8	39.8	85	35.7	0	1	68	0.00	30.236 
04:35	39.9	39.9	39.9	84	35.5	0	2	68	0.00	30.236 
04:40	39.9	39.9	39.9	84	35.5	0	2	68	0.00	30.236 
04:45	39.9	39.9	39.9	84	35.5	0	1	68	0.00	30.241 
04:50	40.1	40.1	40.1	84	35.7	0	1	68	0.00	30.241 
04:55	40.1	40.1	40.1	84	35.7	0	4	45	0.00	30.241 
05:00	40.1	40.1	40.1	84	35.7	0	0	---	0.00	30.249 
05:05	40.2	40.2	40.2	84	35.8	0	2	45	0.00	30.249 
05:10	40.3	40.3	40.3	84	35.9	0	2	45	0.00	30.249 
05:15	40.3	40.3	40.3	84	35.9	0	1	45	0.00	30.253 
05:20	40.5	40.5	40.5	84	36.1	0	0	---	0.00	30.253 
05:25	40.5	40.5	40.5	84	36.1	0	1	45	0.00	30.253 
05:30	40.5	40.5	40.5	84	36.1	0	1	45	0.00	30.254 
05:35	40.5	40.5	40.5	83	35.8	0	1	45	0.00	30.254 
05:40	40.6	40.6	40.6	84	36.2	0	0	---	0.00	30.254 
05:45	40.6	40.6	40.6	83	35.8	0	2	45	0.00	30.262 
05:50	40.8	40.8	40.8	83	36.0	0	1	45	0.00	30.262 
05:55	40.8	40.8	40.8	83	36.0	0	1	45	0.00	30.262 
06:00	40.8	40.8	40.8	83	36.0	0	1	45	0.00	30.267 
06:05	40.9	40.9	40.9	83	36.1	0	1	45	0.00	30.267 
06:10	40.9	40.9	40.9	83	36.1	0	4	45	0.00	30.267 
06:15	40.9	40.9	40.9	83	36.1	0	3	45	0.00	30.274 
06:20	40.9	40.9	40.9	83	36.1	0	1	45	0.00	30.274 
06:25	40.9	40.9	40.9	83	36.1	0	2	45	0.00	30.274 
06:30	40.9	40.9	40.9	83	36.1	0	1	45	0.00	30.281 
06:35	40.9	40.9	40.9	83	36.1	0	1	45	0.00	30.281 
06:40	41.1	41.1	41.1	83	36.3	0	1	45	0.00	30.281 
06:45	41.1	41.1	41.1	83	36.3	0	2	45	0.00	30.284 
06:50	41.1	41.1	41.1	83	36.3	0	1	45	0.00	30.284 
06:55	41.1	41.1	41.1	83	36.3	0	2	45	0.00	30.284 
07:00	41.1	41.1	41.1	83	36.3	0	1	45	0.00	30.287 
07:05	41.1	41.1	41.1	83	36.3	0	1	45	0.00	30.287 
07:10	41.1	41.1	41.1	83	36.3	0	2	45	0.00	30.287 
07:15	41.1	41.1	41.1	83	36.3	0	2	45	0.00	30.291 
07:20	41.1	41.1	41.1	84	36.6	0	1	45	0.00	30.291 
07:25	41.1	41.1	41.1	84	36.6	0	1	45	0.00	30.291 
07:30	41.1	41.1	41.1	84	36.6	0	1	45	0.00	30.298 
07:35	41.1	41.1	41.1	84	36.6	0	2	45	0.00	30.298 
07:40	41.1	41.1	41.1	84	36.6	0	1	45	0.00	30.298 
07:45	41.1	41.1	41.1	84	36.6	0	1	45	0.00	30.300 
07:50	41.1	41.1	41.1	84	36.6	0	2	45	0.00	30.300 
07:55	40.9	40.9	40.9	84	36.4	0	3	45	0.00	30.300 
08:00	40.9	40.9	40.9	84	36.4	0	2	45	0.00	30.303 
08:05	40.8	40.8	40.8	84	36.3	0	1	45	0.00	30.303 
08:10	40.6	40.6	40.6	84	36.2	0	2	45	0.00	30.303 
08:15	40.3	40.3	40.3	84	35.9	0	2	45	0.00	30.301 
08:20	40.2	40.2	40.2	84	35.8	0	1	45	0.00	30.301 
08:25	40.1	40.1	40.1	84	35.7	0	3	45	0.00	30.301 
08:30	39.8	39.8	39.8	85	35.7	0	2	45	0.00	30.303 
08:35	39.6	39.6	39.6	85	35.5	0	1	45	0.00	30.303 
08:40	39.5	39.5	39.5	85	35.4	0	0	---	0.00	30.303 
08:45	39.5	39.5	39.5	86	35.7	0	0	---	0.00	30.309 
08:50	39.6	39.6	39.6	86	35.8	0	1	45	0.00	30.309 
08:55	39.8	39.8	39.8	86	36.0	0	1	45	0.00	30.309 
09:00	39.9	39.9	39.9	86	36.1	0	1	45	0.00	30.314 
09:05	40.2	40.2	40.2	86	36.4	0	2	45	0.00	30.314 
09:10	40.3	40.3	40.3	86	36.5	0	3	45	0.00	30.314 
09:15	40.6	40.6	40.6	86	36.7	0	2	45	0.00	30.318 
09:20	40.9	40.9	40.9	85	36.7	0	2	45	0.00	30.318 
09:25	41.1	41.1	41.1	85	36.9	0	2	45	0.00	30.318 
09:30	41.3	41.3	41.3	85	37.1	0	2	45	0.00	30.321 
09:35	41.6	41.6	41.6	84	37.1	0	2	45	0.00	30.321 
09:40	41.9	41.9	41.9	84	37.4	0	2	45	0.00	30.321 
09:45	42.3	42.3	42.3	83	37.5	1	3	45	0.00	30.323 
09:50	42.8	42.8	42.8	82	37.7	1	5	68	0.00	30.323 
09:55	43.1	43.1	43.1	81	37.7	0	1	135	0.00	30.323 
10:00	43.3	43.3	43.3	81	37.9	0	2	135	0.00	30.321 
10:05	43.6	43.6	43.6	81	38.2	0	2	90	0.00	30.321 
10:10	44.1	44.1	44.1	80	38.3	0	3	90	0.00	30.321 
10:15	44.6	44.6	44.6	78	38.2	1	4	90	0.00	30.326 
10:20	45.2	45.2	45.2	77	38.4	1	4	68	0.00	30.326 
10:25	45.8	45.8	45.8	75	38.3	1	4	90	0.00	30.326 
10:30	46.4	46.4	46.4	74	38.6	1	4	158	0.00	30.324 
10:35	46.8	46.8	46.8	73	38.6	2	5	135	0.00	30.324 
10:40	47.3	47.3	47.3	72	38.7	2	6	112	0.00	30.324 
10:45	47.6	47.6	47.6	72	39.0	1	4	112	0.00	30.327 
10:50	47.4	47.4	47.4	72	38.8	2	5	112	0.00	30.327 
10:55	47.6	47.6	47.6	72	39.0	1	4	68	0.00	30.327 
11:00	48.0	48.0	48.0	73	39.8	1	5	90	0.00	30.328 
11:05	48.5	48.5	48.5	71	39.5	1	4	22	0.00	30.328 
11:10	48.5	48.5	48.5	71	39.5	1	3	68	0.00	30.328 
11:15	48.3	48.3	48.3	72	39.7	1	3	90	0.00	30.329 
11:20	48.2	48.2	48.2	72	39.6	1	5	90	0.00	30.329 
11:25	48.3	48.3	48.3	70	39.0	1	4	112	0.00	30.329 
11:30	48.3	48.3	48.3	70	39.0	1	5	112	0.00	30.331 
11:35	48.3	48.3	48.3	70	39.0	3	6	90	0.00	30.331 
11:40	48.8	48.8	48.8	69	39.1	2	5	90	0.00	30.331 
11:45	48.9	48.9	48.9	70	39.6	1	4	90	0.00	30.334 
11:50	48.8	48.8	48.8	69	39.1	0	3	90	0.00	30.334 
11:55	48.6	48.6	48.6	70	39.3	1	3	90	0.00	30.334 
12:00	48.5	48.5	48.5	70	39.2	0	4	90	0.00	30.337 
12:05	48.3	48.3	48.3	71	39.3	1	3	90	0.00	30.337 
12:10	48.3	48.3	48.3	71	39.3	1	4	90	0.00	30.337 
12:15	48.5	48.5	48.5	72	39.9	0	3	90	0.00	30.335 
12:20	48.3	48.3	48.3	71	39.3	2	4	90	0.00	30.335 
12:25	48.0	48.0	48.0	71	39.1	0	2	90	0.00	30.335 
12:30	48.0	48.0	48.0	72	39.4	2	6	90	0.00	30.344 
12:35	48.0	48.0	48.0	72	39.4	0	2	90	0.00	30.344 
12:40	48.0	48.0	48.0	72	39.4	1	3	90	0.00	30.344 
12:45	48.2	48.2	48.2	72	39.6	1	4	90	0.00	30.342 
12:50	48.0	48.0	48.0	72	39.4	1	3	90	0.00	30.342 
12:55	48.0	48.0	48.0	73	39.8	0	3	90	0.00	30.342 
13:00	47.9	47.9	47.9	73	39.7	0	1	90	0.00	30.340 
13:05	47.9	47.9	47.9	73	39.7	0	2	90	0.00	30.340 
13:10	47.9	47.9	47.9	73	39.7	0	2	90	0.00	30.340 
13:15	47.6	47.6	47.6	73	39.4	0	2	90	0.00	30.333 
13:20	47.4	47.4	47.4	73	39.2	1	4	68	0.00	30.333 
13:25	47.4	47.4	47.4	72	38.8	0	3	68	0.00	30.333 
13:30	47.6	47.6	47.6	74	39.7	0	2	68	0.00	30.330 
13:35	47.7	47.7	47.7	73	39.5	0	2	68	0.00	30.330 
13:40	47.9	47.9	47.9	73	39.7	0	2	68	0.00	30.330 
13:45	47.7	47.7	47.7	72	39.1	1	3	68	0.00	30.327 
13:50	47.6	47.6	47.6	72	39.0	1	3	68	0.00	30.327 
13:55	47.7	47.7	47.7	74	39.8	0	2	68	0.00	30.327 
14:00	47.7	47.7	47.7	73	39.5	0	2	68	0.00	30.326 
14:05	47.7	47.7	47.7	73	39.5	0	1	68	0.00	30.326 
14:10	47.9	47.9	47.9	74	40.0	0	2	68	0.00	30.326 
14:15	48.0	48.0	48.0	72	39.4	1	4	68	0.00	30.318 
14:20	48.2	48.2	48.2	73	40.0	1	3	68	0.00	30.318 
14:25	48.5	48.5	48.5	73	40.2	1	3	68	0.00	30.318 
14:30	48.6	48.6	48.6	73	40.3	0	2	68	0.00	30.311 
14:35	48.8	48.8	48.8	73	40.5	0	2	68	0.00	30.311 
14:40	49.1	49.1	49.1	74	41.2	0	1	68	0.00	30.311 
14:45	49.2	49.2	49.2	73	40.9	0	2	68	0.00	30.299 
14:50	49.1	49.1	49.1	72	40.5	0	2	68	0.00	30.299 
14:55	48.9	48.9	48.9	73	40.6	0	2	68	0.00	30.299 
15:00	49.1	49.1	49.1	73	40.8	0	3	68	0.00	30.302 
15:05	48.9	48.9	48.9	72	40.3	1	3	68	0.00	30.302 
15:10	48.9	48.9	48.9	72	40.3	0	3	68	0.00	30.302 
15:15	48.8	48.8	48.8	71	39.8	0	1	68	0.00	30.308 
15:20	48.8	48.8	48.8	72	40.2	1	2	68	0.00	30.308 
15:25	48.8	48.8	48.8	72	40.2	0	3	68	0.00	30.308 
15:30	48.9	48.9	48.9	73	40.6	0	1	68	0.00	30.304 
15:35	48.8	48.8	48.8	71	39.8	0	1	68	0.00	30.304 
15:40	48.8	48.8	48.8	73	40.5	0	1	68	0.00	30.304 
15:45	48.8	48.8	48.8	72	40.2	1	3	68	0.00	30.301 
15:50	48.8	48.8	48.8	74	40.9	0	3	68	0.00	30.301 
15:55	48.9	48.9	48.9	73	40.6	1	4	68	0.00	30.301 
16:00	48.9	48.9	48.9	73	40.6	0	2	68	0.00	30.302 
16:05	48.8	48.8	48.8	72	40.2	0	1	68	0.00	30.302 
16:10	48.8	48.8	48.8	72	40.2	0	2	68	0.00	30.302 
16:15	48.8	48.8	48.8	73	40.5	1	3	68	0.00	30.302 
16:20	48.8	48.8	48.8	73	40.5	1	3	68	0.00	30.302 
16:25	48.6	48.6	48.6	73	40.3	1	4	68	0.00	30.302 
16:30	48.6	48.6	48.6	73	40.3	0	2	68	0.00	30.300 
16:35	48.6	48.6	48.6	73	40.3	0	2	68	0.00	30.300 
16:40	48.5	48.5	48.5	73	40.2	0	2	68	0.00	30.300 
16:45	48.6	48.6	48.6	73	40.3	0	3	68	0.00	30.295 
16:50	48.6	48.6	48.6	73	40.3	0	1	68	0.00	30.295 
16:55	48.6	48.6	48.6	73	40.3	0	2	68	0.00	30.295 
17:00	48.5	48.5	48.5	73	40.2	0	1	68	0.00	30.291 
17:05	48.6	48.6	48.6	73	40.3	0	1	68	0.00	30.291 
17:10	48.8	48.8	48.8	73	40.5	0	3	68	0.00	30.291 
17:15	48.6	48.6	48.6	73	40.3	0	2	68	0.00	30.287 
17:20	48.5	48.5	48.5	73	40.2	0	1	68	0.00	30.287 
17:25	48.2	48.2	48.2	73	40.0	0	2	68	0.00	30.287 
17:30	48.0	48.0	48.0	73	39.8	0	2	68	0.00	30.289 
17:35	48.0	48.0	48.0	74	40.1	0	2	68	0.00	30.289 
17:40	48.0	48.0	48.0	74	40.1	0	3	68	0.00	30.289 
17:45	48.0	48.0	48.0	74	40.1	0	2	68	0.00	30.296 
17:50	47.9	47.9	47.9	74	40.0	0	2	68	0.00	30.296 
17:55	47.9	47.9	47.9	74	40.0	0	2	68	0.00	30.296 
18:00	47.9	47.9	47.9	74	40.0	1	3	68	0.00	30.293 
18:05	47.9	47.9	47.9	74	40.0	0	2	68	0.00	30.293 
18:10	47.9	47.9	47.9	74	40.0	0	2	68	0.00	30.293 
18:15	47.7	47.7	47.7	74	39.8	1	4	68	0.00	30.290 
18:20	47.4	47.4	47.4	74	39.5	1	4	68	0.00	30.290 
18:25	47.1	47.1	47.1	75	39.6	0	1	68	0.00	30.290 
18:30	47.0	47.0	47.0	75	39.5	0	0	---	0.00	30.287 
18:35	47.0	47.0	47.0	76	39.8	0	0	---	0.00	30.287 
18:40	46.8	46.8	46.8	76	39.6	0	1	68	0.00	30.287 
18:45	46.7	46.7	46.7	77	39.9	0	1	68	0.00	30.288 
18:50	46.5	46.5	46.5	77	39.7	0	1	68	0.00	30.288 
18:55	46.2	46.2	46.2	77	39.4	0	0	---	0.00	30.288 
19:00	46.1	46.1	46.1	78	39.6	0	0	---	0.00	30.292 
19:05	45.8	45.8	45.8	78	39.3	0	0	---	0.00	30.292 
19:10	45.5	45.5	45.5	79	39.4	0	0	---	0.00	30.292 
19:15	45.2	45.2	45.2	79	39.1	0	1	68	0.00	30.291 
19:20	44.9	44.9	44.9	80	39.1	0	0	---	0.00	30.291 
19:25	44.6	44.6	44.6	80	38.8	0	0	---	0.00	30.291 
19:30	44.3	44.3	44.3	81	38.8	0	0	---	0.00	30.291 
19:35	44.1	44.1	44.1	81	38.6	0	0	---	0.00	30.291 
19:40	43.8	43.8	43.8	82	38.7	0	0	---	0.00	30.291 
19:45	43.5	43.5	43.5	82	38.4	0	0	---	0.00	30.290 
19:50	43.2	43.2	43.2	83	38.4	0	0	---	0.00	30.290 
19:55	42.8	42.8	42.8	84	38.3	0	0	---	0.00	30.290 
20:00	42.5	42.5	42.5	84	38.0	0	0	---	0.00	30.291 
20:05	42.2	42.2	42.2	84	37.7	0	0	---	0.00	30.291 
20:10	42.1	42.1	42.1	84	37.6	0	0	---	0.00	30.291 
20:15	41.8	41.8	41.8	85	37.6	0	0	---	0.00	30.291 
20:20	41.6	41.6	41.6	85	37.4	0	0	---	0.00	30.291 
20:25	41.3	41.3	41.3	85	37.1	0	0	---	0.00	30.291 
20:30	41.1	41.1	41.1	86	37.2	0	0	---	0.00	30.293 
20:35	40.9	40.9	40.9	86	37.0	0	0	---	0.00	30.293 
20:40	40.8	40.8	40.8	86	36.9	0	0	---	0.00	30.293 
20:45	40.5	40.5	40.5	87	36.9	0	0	---	0.00	30.292 
20:50	40.2	40.2	40.2	87	36.6	0	0	---	0.00	30.292 
20:55	40.1	40.1	40.1	87	36.5	0	0	---	0.00	30.292 
21:00	39.8	39.8	39.8	87	36.3	0	0	---	0.00	30.289 
21:05	39.5	39.5	39.5	88	36.2	0	0	---	0.00	30.289 
21:10	39.3	39.3	39.3	88	36.0	0	0	---	0.00	30.289 
21:15	39.2	39.2	39.2	88	35.9	0	0	---	0.00	30.288 
21:20	39.1	39.1	39.1	88	35.9	0	0	---	0.00	30.288 
21:25	38.9	38.9	38.9	89	35.9	0	0	---	0.00	30.288 
21:30	38.6	38.6	38.6	89	35.6	0	0	---	0.00	30.285 
21:35	38.5	38.5	38.5	89	35.5	0	0	---	0.00	30.285 
21:40	38.3	38.3	38.3	89	35.3	0	0	---	0.00	30.285 
21:45	38.2	38.2	38.2	89	35.2	0	0	---	0.00	30.290 
21:50	38.0	38.0	38.0	90	35.3	0	0	---	0.00	30.290 
21:55	37.8	37.8	37.8	90	35.1	0	0	---	0.00	30.290 
22:00	37.6	37.6	37.6	90	34.9	0	0	---	0.00	30.290 
22:05	37.5	37.5	37.5	90	34.8	0	0	---	0.00	30.290 
22:10	37.3	37.3	37.3	90	34.6	0	0	---	0.00	30.290 
22:15	37.2	37.2	37.2	90	34.5	0	0	---	0.00	30.283 
22:20	37.2	37.2	37.2	90	34.5	0	0	---	0.00	30.283 
22:25	37.0	37.0	37.0	91	34.6	0	0	---	0.00	30.283 
22:30	36.9	36.9	36.9	91	34.5	0	0	---	0.00	30.280 
22:35	36.8	36.8	36.8	91	34.4	0	0	---	0.00	30.280 
22:40	36.6	36.6	36.6	91	34.2	0	0	---	0.00	30.280 
22:45	36.6	36.6	36.6	91	34.2	0	0	---	0.00	30.283 
22:50	36.5	36.5	36.5	91	34.1	0	0	---	0.00	30.283 
22:55	36.2	36.2	36.2	91	33.8	0	0	---	0.00	30.283 
23:00	36.0	36.0	36.0	91	33.6	0	0	---	0.00	30.282 
23:05	36.0	36.0	36.0	91	33.6	0	0	---	0.00	30.282 
23:10	35.9	35.9	35.9	91	33.5	0	0	---	0.00	30.282 
23:15	35.8	35.8	35.8	91	33.4	0	0	---	0.00	30.285 
23:20	35.8	35.8	35.8	91	33.4	0	0	---	0.00	30.285 
23:25	35.6	35.6	35.6	92	33.5	0	0	---	0.00	30.285 
23:30	35.6	35.6	35.6	92	33.5	0	0	---	0.00	30.287 
23:35	35.6	35.6	35.6	92	33.5	0	0	---	0.00	30.287 
23:40	35.6	35.6	35.6	92	33.5	0	0	---	0.00	30.287 
23:45	35.5	35.5	35.5	92	33.4	0	0	---	0.00	30.288 
23:50	35.3	35.3	35.3	92	33.2	0	0	---	0.00	30.288 
23:55	35.3	35.3	35.3	92	33.2	0	0	---	0.00	30.288 

CoCoRaHS
IN-AL-39
A2 Web Hosting
Creative Commons License
GoDaddy
search engine by freefind advanced

loaded 2018-11-17 00:32:15 • last modified 2010-11-18 10:43:29
Privacy PolicyDisclaimer
• wx.awcolley.com is powered by PmWiki v.2002016 •
• all content (unless otherwise noted) © 2018 A W Colley